sensor_id;sensor_type;location;lat;lon;timestamp;P1;durP1;ratioP1;P2;durP2;ratioP2
25559;SDS011;13450;49.374;8.584;2024-03-23T00:52:48;6.53;;;3.30;;
25559;SDS011;13450;49.374;8.584;2024-03-23T00:55:14;10.65;;;4.20;;
25559;SDS011;13450;49.374;8.584;2024-03-23T00:57:39;7.32;;;3.35;;
25559;SDS011;13450;49.374;8.584;2024-03-23T01:00:05;5.93;;;3.30;;
25559;SDS011;13450;49.374;8.584;2024-03-23T01:02:31;8.07;;;3.00;;
25559;SDS011;13450;49.374;8.584;2024-03-23T01:04:57;6.30;;;3.25;;
25559;SDS011;13450;49.374;8.584;2024-03-23T01:07:23;5.63;;;2.83;;
25559;SDS011;13450;49.374;8.584;2024-03-23T01:09:48;7.47;;;3.15;;
25559;SDS011;13450;49.374;8.584;2024-03-23T01:12:13;6.63;;;3.58;;
25559;SDS011;13450;49.374;8.584;2024-03-23T01:14:39;7.82;;;3.40;;
25559;SDS011;13450;49.374;8.584;2024-03-23T01:17:04;5.97;;;3.13;;
25559;SDS011;13450;49.374;8.584;2024-03-23T01:19:29;5.53;;;3.00;;
25559;SDS011;13450;49.374;8.584;2024-03-23T01:21:55;5.47;;;3.25;;
25559;SDS011;13450;49.374;8.584;2024-03-23T01:24:20;6.38;;;3.30;;
25559;SDS011;13450;49.374;8.584;2024-03-23T01:26:46;5.70;;;2.97;;
25559;SDS011;13450;49.374;8.584;2024-03-23T01:29:13;7.05;;;3.90;;
25559;SDS011;13450;49.374;8.584;2024-03-23T01:31:38;9.10;;;3.78;;
25559;SDS011;13450;49.374;8.584;2024-03-23T01:34:04;6.50;;;3.15;;
25559;SDS011;13450;49.374;8.584;2024-03-23T01:36:31;7.38;;;3.75;;
25559;SDS011;13450;49.374;8.584;2024-03-23T01:38:56;6.82;;;3.10;;
25559;SDS011;13450;49.374;8.584;2024-03-23T01:41:23;5.75;;;2.58;;
25559;SDS011;13450;49.374;8.584;2024-03-23T01:43:49;5.93;;;2.67;;
25559;SDS011;13450;49.374;8.584;2024-03-23T01:46:14;7.57;;;2.97;;
25559;SDS011;13450;49.374;8.584;2024-03-23T01:48:40;5.85;;;2.83;;
25559;SDS011;13450;49.374;8.584;2024-03-23T01:51:05;5.88;;;3.25;;
25559;SDS011;13450;49.374;8.584;2024-03-23T01:53:33;6.93;;;2.95;;
25559;SDS011;13450;49.374;8.584;2024-03-23T01:55:58;5.95;;;2.63;;
25559;SDS011;13450;49.374;8.584;2024-03-23T01:58:24;6.63;;;3.80;;
25559;SDS011;13450;49.374;8.584;2024-03-23T02:00:49;7.07;;;3.28;;
25559;SDS011;13450;49.374;8.584;2024-03-23T02:03:24;7.22;;;2.85;;
25559;SDS011;13450;49.374;8.584;2024-03-23T02:05:50;5.63;;;3.03;;
25559;SDS011;13450;49.374;8.584;2024-03-23T02:08:17;7.22;;;3.30;;
25559;SDS011;13450;49.374;8.584;2024-03-23T02:10:45;5.22;;;2.58;;
25559;SDS011;13450;49.374;8.584;2024-03-23T02:13:13;7.20;;;3.78;;
25559;SDS011;13450;49.374;8.584;2024-03-23T02:15:39;7.70;;;3.30;;
25559;SDS011;13450;49.374;8.584;2024-03-23T02:18:05;5.47;;;2.50;;
25559;SDS011;13450;49.374;8.584;2024-03-23T02:20:32;6.22;;;3.15;;
25559;SDS011;13450;49.374;8.584;2024-03-23T02:22:59;6.25;;;3.00;;
25559;SDS011;13450;49.374;8.584;2024-03-23T02:25:25;7.32;;;3.38;;
25559;SDS011;13450;49.374;8.584;2024-03-23T02:27:52;5.55;;;3.03;;
25559;SDS011;13450;49.374;8.584;2024-03-23T02:30:19;9.23;;;3.60;;
25559;SDS011;13450;49.374;8.584;2024-03-23T02:32:45;7.75;;;3.08;;
25559;SDS011;13450;49.374;8.584;2024-03-23T02:35:10;6.57;;;3.40;;
25559;SDS011;13450;49.374;8.584;2024-03-23T02:37:35;8.38;;;3.65;;
25559;SDS011;13450;49.374;8.584;2024-03-23T02:40:01;9.93;;;3.50;;
25559;SDS011;13450;49.374;8.584;2024-03-23T02:42:26;6.38;;;3.47;;
25559;SDS011;13450;49.374;8.584;2024-03-23T02:44:52;10.52;;;3.95;;
25559;SDS011;13450;49.374;8.584;2024-03-23T02:47:17;7.25;;;3.20;;
25559;SDS011;13450;49.374;8.584;2024-03-23T02:49:42;6.55;;;3.30;;
25559;SDS011;13450;49.374;8.584;2024-03-23T02:52:08;7.68;;;3.25;;
25559;SDS011;13450;49.374;8.584;2024-03-23T02:54:33;8.07;;;3.72;;
25559;SDS011;13450;49.374;8.584;2024-03-23T02:56:58;6.28;;;3.25;;
25559;SDS011;13450;49.374;8.584;2024-03-23T02:59:26;6.40;;;3.28;;
25559;SDS011;13450;49.374;8.584;2024-03-23T03:01:51;8.43;;;3.92;;
25559;SDS011;13450;49.374;8.584;2024-03-23T03:04:17;7.38;;;4.03;;
25559;SDS011;13450;49.374;8.584;2024-03-23T03:06:47;9.48;;;3.95;;
25559;SDS011;13450;49.374;8.584;2024-03-23T03:09:13;10.05;;;3.80;;
25559;SDS011;13450;49.374;8.584;2024-03-23T03:11:38;9.20;;;3.65;;
25559;SDS011;13450;49.374;8.584;2024-03-23T03:14:04;7.50;;;4.20;;
25559;SDS011;13450;49.374;8.584;2024-03-23T03:16:32;8.05;;;3.92;;
25559;SDS011;13450;49.374;8.584;2024-03-23T03:18:57;8.18;;;4.30;;
25559;SDS011;13450;49.374;8.584;2024-03-23T03:21:25;8.35;;;4.20;;
25559;SDS011;13450;49.374;8.584;2024-03-23T03:23:50;8.93;;;4.15;;
25559;SDS011;13450;49.374;8.584;2024-03-23T03:26:16;9.57;;;4.03;;
25559;SDS011;13450;49.374;8.584;2024-03-23T03:28:42;9.30;;;4.55;;
25559;SDS011;13450;49.374;8.584;2024-03-23T03:31:08;5.95;;;2.83;;
25559;SDS011;13450;49.374;8.584;2024-03-23T03:33:33;9.02;;;4.03;;
25559;SDS011;13450;49.374;8.584;2024-03-23T03:35:58;6.97;;;3.33;;
25559;SDS011;13450;49.374;8.584;2024-03-23T03:38:24;10.20;;;4.07;;
25559;SDS011;13450;49.374;8.584;2024-03-23T03:40:52;7.43;;;3.28;;
25559;SDS011;13450;49.374;8.584;2024-03-23T03:43:18;11.15;;;4.63;;
25559;SDS011;13450;49.374;8.584;2024-03-23T03:45:50;8.88;;;3.80;;
25559;SDS011;13450;49.374;8.584;2024-03-23T03:48:16;8.07;;;3.67;;
25559;SDS011;13450;49.374;8.584;2024-03-23T03:50:42;9.07;;;4.00;;
25559;SDS011;13450;49.374;8.584;2024-03-23T03:53:07;9.63;;;4.85;;
25559;SDS011;13450;49.374;8.584;2024-03-23T03:55:32;8.55;;;3.85;;
25559;SDS011;13450;49.374;8.584;2024-03-23T03:57:57;11.40;;;4.28;;
25559;SDS011;13450;49.374;8.584;2024-03-23T04:00:23;9.65;;;4.30;;
25559;SDS011;13450;49.374;8.584;2024-03-23T04:02:48;9.60;;;4.05;;
25559;SDS011;13450;49.374;8.584;2024-03-23T04:05:13;9.55;;;4.50;;
25559;SDS011;13450;49.374;8.584;2024-03-23T04:07:39;10.15;;;4.40;;
25559;SDS011;13450;49.374;8.584;2024-03-23T04:10:04;9.82;;;4.45;;
25559;SDS011;13450;49.374;8.584;2024-03-23T04:12:32;12.85;;;4.25;;
25559;SDS011;13450;49.374;8.584;2024-03-23T04:14:57;9.95;;;4.13;;
25559;SDS011;13450;49.374;8.584;2024-03-23T04:17:26;10.52;;;5.07;;
25559;SDS011;13450;49.374;8.584;2024-03-23T04:19:56;10.10;;;3.80;;
25559;SDS011;13450;49.374;8.584;2024-03-23T04:22:23;11.80;;;4.63;;
25559;SDS011;13450;49.374;8.584;2024-03-23T04:24:54;13.23;;;4.47;;
25559;SDS011;13450;49.374;8.584;2024-03-23T04:27:20;11.35;;;4.82;;
25559;SDS011;13450;49.374;8.584;2024-03-23T04:29:48;12.55;;;4.90;;
25559;SDS011;13450;49.374;8.584;2024-03-23T04:32:20;14.43;;;5.30;;
25559;SDS011;13450;49.374;8.584;2024-03-23T04:34:45;13.23;;;5.03;;
25559;SDS011;13450;49.374;8.584;2024-03-23T04:37:11;11.82;;;4.65;;
25559;SDS011;13450;49.374;8.584;2024-03-23T04:39:37;11.63;;;4.45;;
25559;SDS011;13450;49.374;8.584;2024-03-23T04:42:02;11.63;;;4.55;;
25559;SDS011;13450;49.374;8.584;2024-03-23T04:44:28;11.68;;;4.28;;
25559;SDS011;13450;49.374;8.584;2024-03-23T04:46:54;11.85;;;4.80;;
25559;SDS011;13450;49.374;8.584;2024-03-23T04:49:19;11.63;;;4.47;;
25559;SDS011;13450;49.374;8.584;2024-03-23T04:51:45;12.60;;;4.57;;
25559;SDS011;13450;49.374;8.584;2024-03-23T04:54:11;13.02;;;4.85;;
25559;SDS011;13450;49.374;8.584;2024-03-23T04:56:42;11.35;;;4.38;;
25559;SDS011;13450;49.374;8.584;2024-03-23T04:59:09;11.98;;;4.07;;
25559;SDS011;13450;49.374;8.584;2024-03-23T05:01:35;9.27;;;3.45;;
25559;SDS011;13450;49.374;8.584;2024-03-23T05:04:03;10.10;;;4.20;;
25559;SDS011;13450;49.374;8.584;2024-03-23T05:06:31;11.80;;;4.13;;
25559;SDS011;13450;49.374;8.584;2024-03-23T05:08:58;7.43;;;3.40;;
25559;SDS011;13450;49.374;8.584;2024-03-23T05:11:36;7.68;;;3.00;;
25559;SDS011;13450;49.374;8.584;2024-03-23T05:14:02;6.82;;;2.35;;
25559;SDS011;13450;49.374;8.584;2024-03-23T05:16:28;8.00;;;2.30;;
25559;SDS011;13450;49.374;8.584;2024-03-23T05:18:53;5.43;;;1.70;;
25559;SDS011;13450;49.374;8.584;2024-03-23T05:21:18;4.22;;;1.65;;
25559;SDS011;13450;49.374;8.584;2024-03-23T05:23:44;3.60;;;1.27;;
25559;SDS011;13450;49.374;8.584;2024-03-23T05:26:09;3.13;;;1.40;;
25559;SDS011;13450;49.374;8.584;2024-03-23T05:28:35;3.35;;;1.35;;
25559;SDS011;13450;49.374;8.584;2024-03-23T05:31:00;3.85;;;1.33;;
25559;SDS011;13450;49.374;8.584;2024-03-23T05:33:25;3.30;;;1.35;;
25559;SDS011;13450;49.374;8.584;2024-03-23T05:35:57;2.55;;;1.10;;
25559;SDS011;13450;49.374;8.584;2024-03-23T05:38:26;3.03;;;1.30;;
25559;SDS011;13450;49.374;8.584;2024-03-23T05:43:23;1.40;;;0.60;;
25559;SDS011;13450;49.374;8.584;2024-03-23T05:45:59;1.15;;;0.45;;
25559;SDS011;13450;49.374;8.584;2024-03-23T05:48:26;2.60;;;0.75;;
25559;SDS011;13450;49.374;8.584;2024-03-23T05:50:52;1.85;;;0.70;;
25559;SDS011;13450;49.374;8.584;2024-03-23T05:53:17;1.60;;;0.63;;
25559;SDS011;13450;49.374;8.584;2024-03-23T05:55:45;2.92;;;0.98;;
25559;SDS011;13450;49.374;8.584;2024-03-23T05:58:12;1.33;;;0.80;;
25559;SDS011;13450;49.374;8.584;2024-03-23T06:00:40;2.35;;;1.10;;
25559;SDS011;13450;49.374;8.584;2024-03-23T06:03:05;1.98;;;0.90;;
25559;SDS011;13450;49.374;8.584;2024-03-23T06:05:33;2.50;;;0.80;;
25559;SDS011;13450;49.374;8.584;2024-03-23T06:07:59;1.88;;;0.80;;
25559;SDS011;13450;49.374;8.584;2024-03-23T06:10:24;2.25;;;0.90;;
25559;SDS011;13450;49.374;8.584;2024-03-23T06:12:49;1.70;;;0.80;;
25559;SDS011;13450;49.374;8.584;2024-03-23T06:15:17;1.70;;;0.85;;
25559;SDS011;13450;49.374;8.584;2024-03-23T06:17:43;2.13;;;0.90;;
25559;SDS011;13450;49.374;8.584;2024-03-23T06:20:08;4.85;;;1.80;;
25559;SDS011;13450;49.374;8.584;2024-03-23T06:22:35;2.55;;;1.00;;
25559;SDS011;13450;49.374;8.584;2024-03-23T06:25:00;2.20;;;0.90;;
25559;SDS011;13450;49.374;8.584;2024-03-23T06:27:26;2.50;;;0.80;;
25559;SDS011;13450;49.374;8.584;2024-03-23T06:29:51;1.80;;;0.80;;
25559;SDS011;13450;49.374;8.584;2024-03-23T06:32:17;2.38;;;0.88;;
25559;SDS011;13450;49.374;8.584;2024-03-23T06:34:43;1.20;;;0.68;;
25559;SDS011;13450;49.374;8.584;2024-03-23T06:37:09;2.95;;;0.80;;
25559;SDS011;13450;49.374;8.584;2024-03-23T06:39:40;1.25;;;0.60;;
25559;SDS011;13450;49.374;8.584;2024-03-23T06:42:06;1.70;;;0.60;;
25559;SDS011;13450;49.374;8.584;2024-03-23T06:44:33;1.42;;;0.50;;
25559;SDS011;13450;49.374;8.584;2024-03-23T06:46:58;1.67;;;0.60;;
25559;SDS011;13450;49.374;8.584;2024-03-23T06:49:24;1.13;;;0.50;;
25559;SDS011;13450;49.374;8.584;2024-03-23T06:51:49;1.42;;;0.52;;
25559;SDS011;13450;49.374;8.584;2024-03-23T06:54:16;1.27;;;0.47;;
25559;SDS011;13450;49.374;8.584;2024-03-23T06:56:44;1.15;;;0.45;;
25559;SDS011;13450;49.374;8.584;2024-03-23T06:59:10;0.95;;;0.50;;
25559;SDS011;13450;49.374;8.584;2024-03-23T07:01:35;0.75;;;0.30;;
25559;SDS011;13450;49.374;8.584;2024-03-23T07:04:00;1.38;;;0.47;;
25559;SDS011;13450;49.374;8.584;2024-03-23T07:06:26;0.43;;;0.30;;
25559;SDS011;13450;49.374;8.584;2024-03-23T07:08:54;0.40;;;0.25;;
25559;SDS011;13450;49.374;8.584;2024-03-23T07:11:22;0.85;;;0.40;;
25559;SDS011;13450;49.374;8.584;2024-03-23T07:13:51;1.03;;;0.60;;
25559;SDS011;13450;49.374;8.584;2024-03-23T07:16:19;0.82;;;0.30;;
25559;SDS011;13450;49.374;8.584;2024-03-23T07:18:45;1.48;;;0.47;;
25559;SDS011;13450;49.374;8.584;2024-03-23T07:21:10;2.10;;;0.50;;
25559;SDS011;13450;49.374;8.584;2024-03-23T07:23:36;0.40;;;0.20;;
25559;SDS011;13450;49.374;8.584;2024-03-23T07:26:02;0.52;;;0.25;;
25559;SDS011;13450;49.374;8.584;2024-03-23T07:28:32;0.43;;;0.30;;
25559;SDS011;13450;49.374;8.584;2024-03-23T07:33:28;0.60;;;0.30;;
25559;SDS011;13450;49.374;8.584;2024-03-23T07:35:53;0.77;;;0.40;;
25559;SDS011;13450;49.374;8.584;2024-03-23T07:38:19;1.48;;;0.60;;
25559;SDS011;13450;49.374;8.584;2024-03-23T07:40:44;0.68;;;0.40;;
25559;SDS011;13450;49.374;8.584;2024-03-23T07:43:10;1.70;;;0.43;;
25559;SDS011;13450;49.374;8.584;2024-03-23T07:45:35;2.55;;;0.45;;
25559;SDS011;13450;49.374;8.584;2024-03-23T07:48:02;2.72;;;0.60;;
25559;SDS011;13450;49.374;8.584;2024-03-23T07:50:28;1.95;;;0.50;;
25559;SDS011;13450;49.374;8.584;2024-03-23T07:52:53;1.92;;;0.43;;
25559;SDS011;13450;49.374;8.584;2024-03-23T07:55:19;2.78;;;0.70;;
25559;SDS011;13450;49.374;8.584;2024-03-23T07:57:44;2.10;;;0.47;;
25559;SDS011;13450;49.374;8.584;2024-03-23T08:00:09;1.20;;;0.70;;
25559;SDS011;13450;49.374;8.584;2024-03-23T08:02:40;0.88;;;0.57;;
25559;SDS011;13450;49.374;8.584;2024-03-23T08:05:08;4.13;;;1.02;;
25559;SDS011;13450;49.374;8.584;2024-03-23T08:07:36;1.73;;;0.60;;
25559;SDS011;13450;49.374;8.584;2024-03-23T08:10:01;3.25;;;0.70;;
25559;SDS011;13450;49.374;8.584;2024-03-23T08:12:31;1.95;;;0.60;;
25559;SDS011;13450;49.374;8.584;2024-03-23T08:14:58;2.42;;;0.80;;
25559;SDS011;13450;49.374;8.584;2024-03-23T08:17:24;2.92;;;0.73;;
25559;SDS011;13450;49.374;8.584;2024-03-23T08:19:51;4.97;;;0.98;;
25559;SDS011;13450;49.374;8.584;2024-03-23T08:22:19;2.00;;;0.68;;
25559;SDS011;13450;49.374;8.584;2024-03-23T08:24:44;2.70;;;0.77;;
25559;SDS011;13450;49.374;8.584;2024-03-23T08:27:11;1.52;;;0.60;;
25559;SDS011;13450;49.374;8.584;2024-03-23T08:29:37;2.25;;;0.70;;
25559;SDS011;13450;49.374;8.584;2024-03-23T08:32:02;4.47;;;0.80;;
25559;SDS011;13450;49.374;8.584;2024-03-23T08:34:27;1.70;;;0.70;;
25559;SDS011;13450;49.374;8.584;2024-03-23T08:36:53;2.90;;;0.80;;
25559;SDS011;13450;49.374;8.584;2024-03-23T08:39:18;5.30;;;1.10;;
25559;SDS011;13450;49.374;8.584;2024-03-23T08:41:43;2.83;;;0.90;;
25559;SDS011;13450;49.374;8.584;2024-03-23T08:44:11;2.42;;;0.85;;
25559;SDS011;13450;49.374;8.584;2024-03-23T08:46:36;5.57;;;1.10;;
25559;SDS011;13450;49.374;8.584;2024-03-23T08:49:01;3.13;;;0.90;;
25559;SDS011;13450;49.374;8.584;2024-03-23T08:51:27;6.30;;;1.10;;
25559;SDS011;13450;49.374;8.584;2024-03-23T08:53:52;5.38;;;1.00;;
25559;SDS011;13450;49.374;8.584;2024-03-23T08:56:17;2.65;;;1.00;;
25559;SDS011;13450;49.374;8.584;2024-03-23T08:58:42;3.80;;;1.20;;
25559;SDS011;13450;49.374;8.584;2024-03-23T09:01:09;3.00;;;1.00;;
25559;SDS011;13450;49.374;8.584;2024-03-23T09:03:36;4.05;;;1.00;;
25559;SDS011;13450;49.374;8.584;2024-03-23T09:08:33;3.15;;;1.00;;
25559;SDS011;13450;49.374;8.584;2024-03-23T09:11:03;4.10;;;0.88;;
25559;SDS011;13450;49.374;8.584;2024-03-23T09:13:31;5.40;;;1.10;;
25559;SDS011;13450;49.374;8.584;2024-03-23T09:15:57;5.25;;;1.17;;
25559;SDS011;13450;49.374;8.584;2024-03-23T09:18:23;4.15;;;1.40;;
25559;SDS011;13450;49.374;8.584;2024-03-23T09:20:49;4.75;;;1.30;;
25559;SDS011;13450;49.374;8.584;2024-03-23T09:23:14;3.75;;;0.95;;
25559;SDS011;13450;49.374;8.584;2024-03-23T09:25:39;3.22;;;0.95;;
25559;SDS011;13450;49.374;8.584;2024-03-23T09:28:05;3.13;;;0.93;;
25559;SDS011;13450;49.374;8.584;2024-03-23T09:30:34;3.47;;;1.10;;
25559;SDS011;13450;49.374;8.584;2024-03-23T09:33:00;4.63;;;1.10;;
25559;SDS011;13450;49.374;8.584;2024-03-23T09:35:26;2.88;;;1.02;;
25559;SDS011;13450;49.374;8.584;2024-03-23T09:37:51;2.50;;;0.90;;
25559;SDS011;13450;49.374;8.584;2024-03-23T09:40:17;3.55;;;1.00;;
25559;SDS011;13450;49.374;8.584;2024-03-23T09:42:42;3.67;;;1.00;;
25559;SDS011;13450;49.374;8.584;2024-03-23T09:45:21;4.50;;;1.00;;
25559;SDS011;13450;49.374;8.584;2024-03-23T09:47:52;5.85;;;1.30;;
25559;SDS011;13450;49.374;8.584;2024-03-23T09:50:21;6.05;;;1.50;;
25559;SDS011;13450;49.374;8.584;2024-03-23T09:52:46;3.42;;;1.00;;
25559;SDS011;13450;49.374;8.584;2024-03-23T09:55:12;7.05;;;1.45;;
25559;SDS011;13450;49.374;8.584;2024-03-23T09:57:38;4.40;;;1.23;;
25559;SDS011;13450;49.374;8.584;2024-03-23T10:00:04;4.97;;;1.52;;
25559;SDS011;13450;49.374;8.584;2024-03-23T10:02:30;3.10;;;1.10;;
25559;SDS011;13450;49.374;8.584;2024-03-23T10:04:55;5.13;;;1.20;;
25559;SDS011;13450;49.374;8.584;2024-03-23T10:07:22;3.35;;;1.10;;
25559;SDS011;13450;49.374;8.584;2024-03-23T10:09:48;5.35;;;1.15;;
25559;SDS011;13450;49.374;8.584;2024-03-23T10:12:16;3.80;;;1.30;;
25559;SDS011;13450;49.374;8.584;2024-03-23T10:14:43;4.28;;;1.65;;
25559;SDS011;13450;49.374;8.584;2024-03-23T10:19:45;5.05;;;1.40;;
25559;SDS011;13450;49.374;8.584;2024-03-23T10:22:14;3.58;;;1.00;;
25559;SDS011;13450;49.374;8.584;2024-03-23T10:27:06;4.63;;;1.00;;
25559;SDS011;13450;49.374;8.584;2024-03-23T10:29:31;5.00;;;1.30;;
25559;SDS011;13450;49.374;8.584;2024-03-23T10:32:09;3.15;;;0.90;;
25559;SDS011;13450;49.374;8.584;2024-03-23T10:34:36;5.60;;;1.27;;
25559;SDS011;13450;49.374;8.584;2024-03-23T10:37:02;6.32;;;1.30;;
25559;SDS011;13450;49.374;8.584;2024-03-23T10:39:38;5.10;;;1.15;;
25559;SDS011;13450;49.374;8.584;2024-03-23T10:42:05;6.75;;;1.23;;
25559;SDS011;13450;49.374;8.584;2024-03-23T10:44:32;4.55;;;1.10;;
25559;SDS011;13450;49.374;8.584;2024-03-23T10:46:58;4.05;;;1.13;;
25559;SDS011;13450;49.374;8.584;2024-03-23T10:49:31;3.13;;;1.13;;
25559;SDS011;13450;49.374;8.584;2024-03-23T10:52:01;2.97;;;1.00;;
25559;SDS011;13450;49.374;8.584;2024-03-23T10:54:27;6.55;;;1.23;;
25559;SDS011;13450;49.374;8.584;2024-03-23T10:59:28;5.22;;;1.10;;
25559;SDS011;13450;49.374;8.584;2024-03-23T11:01:55;2.83;;;0.98;;
25559;SDS011;13450;49.374;8.584;2024-03-23T11:04:31;2.63;;;0.73;;
25559;SDS011;13450;49.374;8.584;2024-03-23T11:06:57;4.65;;;1.35;;
25559;SDS011;13450;49.374;8.584;2024-03-23T11:09:39;2.75;;;0.70;;
25559;SDS011;13450;49.374;8.584;2024-03-23T11:14:49;3.15;;;0.90;;
25559;SDS011;13450;49.374;8.584;2024-03-23T11:17:19;3.78;;;1.10;;
25559;SDS011;13450;49.374;8.584;2024-03-23T11:19:52;1.88;;;0.80;;
25559;SDS011;13450;49.374;8.584;2024-03-23T11:25:02;3.40;;;0.70;;
25559;SDS011;13450;49.374;8.584;2024-03-23T11:27:28;3.83;;;1.00;;
25559;SDS011;13450;49.374;8.584;2024-03-23T11:29:53;4.10;;;1.00;;
25559;SDS011;13450;49.374;8.584;2024-03-23T11:32:20;4.80;;;1.05;;
25559;SDS011;13450;49.374;8.584;2024-03-23T11:34:49;4.43;;;1.02;;
25559;SDS011;13450;49.374;8.584;2024-03-23T11:37:14;4.97;;;0.93;;
25559;SDS011;13450;49.374;8.584;2024-03-23T11:39:39;3.42;;;0.90;;
25559;SDS011;13450;49.374;8.584;2024-03-23T11:42:07;4.03;;;1.00;;
25559;SDS011;13450;49.374;8.584;2024-03-23T11:44:32;4.10;;;1.13;;
25559;SDS011;13450;49.374;8.584;2024-03-23T11:47:07;4.57;;;1.00;;
25559;SDS011;13450;49.374;8.584;2024-03-23T11:49:35;2.80;;;0.82;;
25559;SDS011;13450;49.374;8.584;2024-03-23T11:52:05;4.03;;;0.77;;
25559;SDS011;13450;49.374;8.584;2024-03-23T11:54:33;4.45;;;0.70;;
25559;SDS011;13450;49.374;8.584;2024-03-23T11:57:04;3.25;;;0.90;;
25559;SDS011;13450;49.374;8.584;2024-03-23T12:02:10;3.55;;;1.00;;
25559;SDS011;13450;49.374;8.584;2024-03-23T12:04:37;3.33;;;1.00;;
25559;SDS011;13450;49.374;8.584;2024-03-23T12:07:12;10.80;;;1.15;;
25559;SDS011;13450;49.374;8.584;2024-03-23T12:09:47;5.32;;;1.55;;
25559;SDS011;13450;49.374;8.584;2024-03-23T12:12:31;3.30;;;1.20;;
25559;SDS011;13450;49.374;8.584;2024-03-23T12:15:03;7.60;;;1.27;;
25559;SDS011;13450;49.374;8.584;2024-03-23T12:17:32;6.68;;;1.30;;
25559;SDS011;13450;49.374;8.584;2024-03-23T12:19:59;3.90;;;1.40;;
25559;SDS011;13450;49.374;8.584;2024-03-23T12:22:25;1.95;;;0.85;;
25559;SDS011;13450;49.374;8.584;2024-03-23T12:24:51;4.25;;;1.23;;
25559;SDS011;13450;49.374;8.584;2024-03-23T12:27:16;3.63;;;1.02;;
25559;SDS011;13450;49.374;8.584;2024-03-23T12:29:42;4.45;;;1.15;;
25559;SDS011;13450;49.374;8.584;2024-03-23T12:32:08;5.00;;;1.50;;
25559;SDS011;13450;49.374;8.584;2024-03-23T12:34:34;5.28;;;1.52;;
25559;SDS011;13450;49.374;8.584;2024-03-23T12:37:00;7.10;;;1.60;;
25559;SDS011;13450;49.374;8.584;2024-03-23T12:39:25;5.57;;;1.75;;
25559;SDS011;13450;49.374;8.584;2024-03-23T12:41:51;4.03;;;1.10;;
25559;SDS011;13450;49.374;8.584;2024-03-23T12:44:17;4.00;;;1.48;;
25559;SDS011;13450;49.374;8.584;2024-03-23T12:46:44;2.60;;;0.82;;
25559;SDS011;13450;49.374;8.584;2024-03-23T12:49:09;1.45;;;0.60;;
25559;SDS011;13450;49.374;8.584;2024-03-23T12:51:35;4.80;;;0.82;;
25559;SDS011;13450;49.374;8.584;2024-03-23T12:54:00;3.03;;;1.52;;
25559;SDS011;13450;49.374;8.584;2024-03-23T12:56:26;2.13;;;0.90;;
25559;SDS011;13450;49.374;8.584;2024-03-23T12:58:53;5.43;;;1.55;;
25559;SDS011;13450;49.374;8.584;2024-03-23T13:01:20;3.78;;;0.90;;
25559;SDS011;13450;49.374;8.584;2024-03-23T13:03:48;3.10;;;1.33;;
25559;SDS011;13450;49.374;8.584;2024-03-23T13:06:16;3.33;;;1.02;;
25559;SDS011;13450;49.374;8.584;2024-03-23T13:11:12;5.32;;;1.25;;
25559;SDS011;13450;49.374;8.584;2024-03-23T13:13:38;2.30;;;0.80;;
25559;SDS011;13450;49.374;8.584;2024-03-23T13:16:06;1.67;;;0.43;;
25559;SDS011;13450;49.374;8.584;2024-03-23T13:18:31;1.95;;;0.30;;
25559;SDS011;13450;49.374;8.584;2024-03-23T13:20:58;1.73;;;0.40;;
25559;SDS011;13450;49.374;8.584;2024-03-23T13:23:23;2.00;;;0.60;;
25559;SDS011;13450;49.374;8.584;2024-03-23T13:25:52;0.52;;;0.30;;
25559;SDS011;13450;49.374;8.584;2024-03-23T13:28:22;0.55;;;0.30;;
25559;SDS011;13450;49.374;8.584;2024-03-23T13:30:54;0.60;;;0.30;;
25559;SDS011;13450;49.374;8.584;2024-03-23T13:33:23;1.52;;;0.40;;
25559;SDS011;13450;49.374;8.584;2024-03-23T13:35:54;1.48;;;0.55;;
25559;SDS011;13450;49.374;8.584;2024-03-23T13:38:23;0.57;;;0.30;;
25559;SDS011;13450;49.374;8.584;2024-03-23T13:43:25;2.75;;;0.40;;
25559;SDS011;13450;49.374;8.584;2024-03-23T13:45:57;2.38;;;0.90;;
25559;SDS011;13450;49.374;8.584;2024-03-23T13:50:56;2.00;;;0.77;;
25559;SDS011;13450;49.374;8.584;2024-03-23T13:53:22;2.42;;;0.40;;
25559;SDS011;13450;49.374;8.584;2024-03-23T13:55:50;2.15;;;0.50;;
25559;SDS011;13450;49.374;8.584;2024-03-23T13:58:16;3.33;;;0.60;;
25559;SDS011;13450;49.374;8.584;2024-03-23T14:00:41;1.60;;;0.60;;
25559;SDS011;13450;49.374;8.584;2024-03-23T14:03:09;1.50;;;0.50;;
25559;SDS011;13450;49.374;8.584;2024-03-23T14:05:39;0.93;;;0.43;;
25559;SDS011;13450;49.374;8.584;2024-03-23T14:08:08;1.15;;;0.40;;
25559;SDS011;13450;49.374;8.584;2024-03-23T14:10:34;2.30;;;0.70;;
25559;SDS011;13450;49.374;8.584;2024-03-23T14:13:03;2.45;;;0.50;;
25559;SDS011;13450;49.374;8.584;2024-03-23T14:15:28;0.90;;;0.30;;
25559;SDS011;13450;49.374;8.584;2024-03-23T14:17:55;4.20;;;0.60;;
25559;SDS011;13450;49.374;8.584;2024-03-23T14:20:21;2.00;;;0.55;;
25559;SDS011;13450;49.374;8.584;2024-03-23T14:22:47;2.92;;;0.50;;
25559;SDS011;13450;49.374;8.584;2024-03-23T14:25:13;2.65;;;0.70;;
25559;SDS011;13450;49.374;8.584;2024-03-23T14:27:38;1.33;;;0.52;;
25559;SDS011;13450;49.374;8.584;2024-03-23T14:30:08;2.65;;;0.73;;
25559;SDS011;13450;49.374;8.584;2024-03-23T14:32:39;0.68;;;0.40;;
25559;SDS011;13450;49.374;8.584;2024-03-23T14:35:07;1.90;;;0.90;;
25559;SDS011;13450;49.374;8.584;2024-03-23T14:37:36;1.48;;;0.70;;
25559;SDS011;13450;49.374;8.584;2024-03-23T14:40:01;1.55;;;0.40;;
25559;SDS011;13450;49.374;8.584;2024-03-23T14:42:27;1.98;;;0.85;;
25559;SDS011;13450;49.374;8.584;2024-03-23T14:44:53;2.20;;;0.40;;
25559;SDS011;13450;49.374;8.584;2024-03-23T14:47:19;2.10;;;0.30;;
25559;SDS011;13450;49.374;8.584;2024-03-23T14:49:45;1.55;;;0.50;;
25559;SDS011;13450;49.374;8.584;2024-03-23T14:52:15;1.13;;;0.43;;
25559;SDS011;13450;49.374;8.584;2024-03-23T14:54:41;1.52;;;0.40;;
25559;SDS011;13450;49.374;8.584;2024-03-23T14:57:06;1.75;;;0.43;;
25559;SDS011;13450;49.374;8.584;2024-03-23T14:59:33;0.95;;;0.40;;
25559;SDS011;13450;49.374;8.584;2024-03-23T15:01:59;1.38;;;0.50;;
25559;SDS011;13450;49.374;8.584;2024-03-23T15:04:25;1.40;;;0.35;;
25559;SDS011;13450;49.374;8.584;2024-03-23T15:06:50;1.05;;;0.40;;
25559;SDS011;13450;49.374;8.584;2024-03-23T15:09:15;1.85;;;0.50;;
25559;SDS011;13450;49.374;8.584;2024-03-23T15:11:41;1.00;;;0.40;;
25559;SDS011;13450;49.374;8.584;2024-03-23T15:14:06;3.15;;;0.75;;
25559;SDS011;13450;49.374;8.584;2024-03-23T15:16:32;2.08;;;0.65;;
25559;SDS011;13450;49.374;8.584;2024-03-23T15:18:58;4.60;;;0.98;;
25559;SDS011;13450;49.374;8.584;2024-03-23T15:21:23;3.05;;;0.70;;
25559;SDS011;13450;49.374;8.584;2024-03-23T15:23:48;3.45;;;0.60;;
25559;SDS011;13450;49.374;8.584;2024-03-23T15:26:16;2.78;;;0.70;;
25559;SDS011;13450;49.374;8.584;2024-03-23T15:28:41;2.50;;;0.60;;
25559;SDS011;13450;49.374;8.584;2024-03-23T15:31:29;1.38;;;0.60;;
25559;SDS011;13450;49.374;8.584;2024-03-23T15:33:55;11.07;;;3.33;;
25559;SDS011;13450;49.374;8.584;2024-03-23T15:36:21;2.83;;;0.90;;
25559;SDS011;13450;49.374;8.584;2024-03-23T15:38:46;1.85;;;0.50;;
25559;SDS011;13450;49.374;8.584;2024-03-23T15:41:16;1.85;;;0.73;;
25559;SDS011;13450;49.374;8.584;2024-03-23T15:43:42;1.70;;;0.77;;
25559;SDS011;13450;49.374;8.584;2024-03-23T15:46:09;1.75;;;0.80;;
25559;SDS011;13450;49.374;8.584;2024-03-23T15:48:36;4.22;;;1.65;;
25559;SDS011;13450;49.374;8.584;2024-03-23T15:51:02;10.95;;;0.95;;
25559;SDS011;13450;49.374;8.584;2024-03-23T15:53:31;2.65;;;0.50;;
25559;SDS011;13450;49.374;8.584;2024-03-23T15:55:57;2.80;;;0.60;;
25559;SDS011;13450;49.374;8.584;2024-03-23T15:58:23;1.20;;;0.43;;
25559;SDS011;13450;49.374;8.584;2024-03-23T16:00:55;0.73;;;0.40;;
25559;SDS011;13450;49.374;8.584;2024-03-23T16:03:24;1.50;;;0.60;;
25559;SDS011;13450;49.374;8.584;2024-03-23T16:05:55;2.30;;;0.85;;